sensor_id;sensor_type;location;lat;lon;timestamp;P1;durP1;ratioP1;P2;durP2;ratioP2
64615;SDS011;51027;42.162;24.754;2023-06-04T00:01:00;15.05;;;5.90;;
64615;SDS011;51027;42.162;24.754;2023-06-04T00:03:26;15.98;;;5.63;;
64615;SDS011;51027;42.162;24.754;2023-06-04T00:05:51;15.05;;;5.88;;
64615;SDS011;51027;42.162;24.754;2023-06-04T00:08:16;15.95;;;5.75;;
64615;SDS011;51027;42.162;24.754;2023-06-04T00:10:42;14.20;;;5.38;;
64615;SDS011;51027;42.162;24.754;2023-06-04T00:13:07;12.90;;;5.30;;
64615;SDS011;51027;42.162;24.754;2023-06-04T00:15:33;16.00;;;5.45;;
64615;SDS011;51027;42.162;24.754;2023-06-04T00:17:58;16.10;;;5.22;;
64615;SDS011;51027;42.162;24.754;2023-06-04T00:20:24;14.63;;;5.55;;
64615;SDS011;51027;42.162;24.754;2023-06-04T00:22:49;14.45;;;5.03;;
64615;SDS011;51027;42.162;24.754;2023-06-04T00:25:15;17.35;;;5.35;;
64615;SDS011;51027;42.162;24.754;2023-06-04T00:27:41;14.75;;;5.28;;
64615;SDS011;51027;42.162;24.754;2023-06-04T00:30:06;15.48;;;5.32;;
64615;SDS011;51027;42.162;24.754;2023-06-04T00:32:32;14.70;;;5.38;;
64615;SDS011;51027;42.162;24.754;2023-06-04T00:34:57;13.75;;;4.88;;
64615;SDS011;51027;42.162;24.754;2023-06-04T00:37:23;15.05;;;5.60;;
64615;SDS011;51027;42.162;24.754;2023-06-04T00:39:49;14.15;;;5.47;;
64615;SDS011;51027;42.162;24.754;2023-06-04T00:42:15;15.15;;;5.65;;
64615;SDS011;51027;42.162;24.754;2023-06-04T00:44:41;18.65;;;6.80;;
64615;SDS011;51027;42.162;24.754;2023-06-04T00:47:12;14.32;;;5.20;;
64615;SDS011;51027;42.162;24.754;2023-06-04T00:49:39;14.88;;;5.32;;
64615;SDS011;51027;42.162;24.754;2023-06-04T00:52:06;16.20;;;5.25;;
64615;SDS011;51027;42.162;24.754;2023-06-04T00:54:35;14.30;;;5.25;;
64615;SDS011;51027;42.162;24.754;2023-06-04T00:57:03;19.65;;;9.25;;
64615;SDS011;51027;42.162;24.754;2023-06-04T00:59:29;21.52;;;11.20;;
64615;SDS011;51027;42.162;24.754;2023-06-04T01:02:32;15.38;;;6.45;;
64615;SDS011;51027;42.162;24.754;2023-06-04T01:04:58;13.80;;;5.30;;
64615;SDS011;51027;42.162;24.754;2023-06-04T01:07:39;15.18;;;5.47;;
64615;SDS011;51027;42.162;24.754;2023-06-04T01:10:11;16.73;;;6.32;;
64615;SDS011;51027;42.162;24.754;2023-06-04T01:12:40;15.57;;;5.90;;
64615;SDS011;51027;42.162;24.754;2023-06-04T01:15:07;16.35;;;6.05;;
64615;SDS011;51027;42.162;24.754;2023-06-04T01:17:43;16.45;;;5.97;;
64615;SDS011;51027;42.162;24.754;2023-06-04T01:22:39;16.02;;;6.05;;
64615;SDS011;51027;42.162;24.754;2023-06-04T01:27:57;13.02;;;5.05;;
64615;SDS011;51027;42.162;24.754;2023-06-04T01:30:24;15.32;;;5.80;;
64615;SDS011;51027;42.162;24.754;2023-06-04T01:32:52;16.37;;;5.93;;
64615;SDS011;51027;42.162;24.754;2023-06-04T01:35:19;13.85;;;5.35;;
64615;SDS011;51027;42.162;24.754;2023-06-04T01:37:45;14.50;;;5.47;;
64615;SDS011;51027;42.162;24.754;2023-06-04T01:40:11;14.93;;;5.47;;
64615;SDS011;51027;42.162;24.754;2023-06-04T01:42:37;15.10;;;5.57;;
64615;SDS011;51027;42.162;24.754;2023-06-04T01:45:02;14.35;;;5.30;;
64615;SDS011;51027;42.162;24.754;2023-06-04T01:47:28;15.20;;;5.35;;
64615;SDS011;51027;42.162;24.754;2023-06-04T01:49:54;15.73;;;5.82;;
64615;SDS011;51027;42.162;24.754;2023-06-04T01:52:19;13.93;;;5.30;;
64615;SDS011;51027;42.162;24.754;2023-06-04T01:54:46;13.30;;;5.38;;
64615;SDS011;51027;42.162;24.754;2023-06-04T01:57:13;14.02;;;5.00;;
64615;SDS011;51027;42.162;24.754;2023-06-04T01:59:39;14.50;;;5.45;;
64615;SDS011;51027;42.162;24.754;2023-06-04T02:02:06;14.15;;;5.30;;
64615;SDS011;51027;42.162;24.754;2023-06-04T02:04:31;16.52;;;5.28;;
64615;SDS011;51027;42.162;24.754;2023-06-04T02:06:57;13.35;;;5.55;;
64615;SDS011;51027;42.162;24.754;2023-06-04T02:09:24;15.15;;;5.20;;
64615;SDS011;51027;42.162;24.754;2023-06-04T02:11:51;15.90;;;5.47;;
64615;SDS011;51027;42.162;24.754;2023-06-04T02:14:16;13.57;;;5.00;;
64615;SDS011;51027;42.162;24.754;2023-06-04T02:16:41;16.13;;;6.20;;
64615;SDS011;51027;42.162;24.754;2023-06-04T02:19:07;15.20;;;5.53;;
64615;SDS011;51027;42.162;24.754;2023-06-04T02:21:32;14.60;;;5.20;;
64615;SDS011;51027;42.162;24.754;2023-06-04T02:23:58;14.05;;;5.30;;
64615;SDS011;51027;42.162;24.754;2023-06-04T02:26:23;15.40;;;6.10;;
64615;SDS011;51027;42.162;24.754;2023-06-04T02:28:51;13.70;;;5.50;;
64615;SDS011;51027;42.162;24.754;2023-06-04T02:31:16;13.18;;;5.10;;
64615;SDS011;51027;42.162;24.754;2023-06-04T02:33:42;14.30;;;5.47;;
64615;SDS011;51027;42.162;24.754;2023-06-04T02:36:08;15.93;;;5.90;;
64615;SDS011;51027;42.162;24.754;2023-06-04T02:38:34;16.65;;;5.80;;
64615;SDS011;51027;42.162;24.754;2023-06-04T02:40:59;15.13;;;5.90;;
64615;SDS011;51027;42.162;24.754;2023-06-04T02:43:25;14.82;;;5.60;;
64615;SDS011;51027;42.162;24.754;2023-06-04T02:45:50;13.63;;;5.70;;
64615;SDS011;51027;42.162;24.754;2023-06-04T02:48:15;14.32;;;5.65;;
64615;SDS011;51027;42.162;24.754;2023-06-04T02:50:41;14.65;;;5.47;;
64615;SDS011;51027;42.162;24.754;2023-06-04T02:53:07;16.08;;;5.60;;
64615;SDS011;51027;42.162;24.754;2023-06-04T02:55:33;14.77;;;5.57;;
64615;SDS011;51027;42.162;24.754;2023-06-04T02:57:59;15.60;;;5.75;;
64615;SDS011;51027;42.162;24.754;2023-06-04T03:00:25;13.10;;;5.30;;
64615;SDS011;51027;42.162;24.754;2023-06-04T03:02:51;16.00;;;5.65;;
64615;SDS011;51027;42.162;24.754;2023-06-04T03:05:16;15.00;;;5.40;;
64615;SDS011;51027;42.162;24.754;2023-06-04T03:07:43;18.00;;;6.07;;
64615;SDS011;51027;42.162;24.754;2023-06-04T03:10:10;17.60;;;6.13;;
64615;SDS011;51027;42.162;24.754;2023-06-04T03:12:36;19.10;;;6.45;;
64615;SDS011;51027;42.162;24.754;2023-06-04T03:15:02;18.40;;;6.68;;
64615;SDS011;51027;42.162;24.754;2023-06-04T03:17:29;16.20;;;6.25;;
64615;SDS011;51027;42.162;24.754;2023-06-04T03:19:56;16.58;;;6.03;;
64615;SDS011;51027;42.162;24.754;2023-06-04T03:22:21;18.52;;;6.00;;
64615;SDS011;51027;42.162;24.754;2023-06-04T03:24:47;15.40;;;5.43;;
64615;SDS011;51027;42.162;24.754;2023-06-04T03:27:13;15.45;;;6.05;;
64615;SDS011;51027;42.162;24.754;2023-06-04T03:29:38;15.35;;;5.55;;
64615;SDS011;51027;42.162;24.754;2023-06-04T03:32:04;14.52;;;5.47;;
64615;SDS011;51027;42.162;24.754;2023-06-04T03:34:31;15.13;;;6.00;;
64615;SDS011;51027;42.162;24.754;2023-06-04T03:36:56;15.18;;;5.63;;
64615;SDS011;51027;42.162;24.754;2023-06-04T03:39:22;15.35;;;5.22;;
64615;SDS011;51027;42.162;24.754;2023-06-04T03:41:48;14.27;;;5.63;;
64615;SDS011;51027;42.162;24.754;2023-06-04T03:44:14;16.60;;;5.90;;
64615;SDS011;51027;42.162;24.754;2023-06-04T03:46:41;14.48;;;5.53;;
64615;SDS011;51027;42.162;24.754;2023-06-04T03:49:08;14.85;;;6.00;;
64615;SDS011;51027;42.162;24.754;2023-06-04T03:51:35;15.57;;;5.85;;
64615;SDS011;51027;42.162;24.754;2023-06-04T03:54:01;18.58;;;6.03;;
64615;SDS011;51027;42.162;24.754;2023-06-04T03:56:27;17.02;;;6.07;;
64615;SDS011;51027;42.162;24.754;2023-06-04T03:58:53;15.98;;;6.10;;
64615;SDS011;51027;42.162;24.754;2023-06-04T04:01:18;13.98;;;5.78;;
64615;SDS011;51027;42.162;24.754;2023-06-04T04:03:44;16.33;;;5.80;;
64615;SDS011;51027;42.162;24.754;2023-06-04T04:06:13;13.52;;;5.70;;
64615;SDS011;51027;42.162;24.754;2023-06-04T04:08:39;14.23;;;5.32;;
64615;SDS011;51027;42.162;24.754;2023-06-04T04:11:07;15.95;;;5.70;;
64615;SDS011;51027;42.162;24.754;2023-06-04T04:13:33;14.70;;;5.15;;
64615;SDS011;51027;42.162;24.754;2023-06-04T04:15:59;13.23;;;5.15;;
64615;SDS011;51027;42.162;24.754;2023-06-04T04:18:24;16.70;;;5.70;;
64615;SDS011;51027;42.162;24.754;2023-06-04T04:20:50;15.00;;;5.38;;
64615;SDS011;51027;42.162;24.754;2023-06-04T04:23:16;15.35;;;5.70;;
64615;SDS011;51027;42.162;24.754;2023-06-04T04:25:42;14.85;;;5.65;;
64615;SDS011;51027;42.162;24.754;2023-06-04T04:28:09;13.95;;;5.40;;
64615;SDS011;51027;42.162;24.754;2023-06-04T04:30:34;13.80;;;5.68;;
64615;SDS011;51027;42.162;24.754;2023-06-04T04:33:00;12.75;;;5.10;;
64615;SDS011;51027;42.162;24.754;2023-06-04T04:35:27;14.52;;;5.57;;
64615;SDS011;51027;42.162;24.754;2023-06-04T04:37:54;13.88;;;5.47;;
64615;SDS011;51027;42.162;24.754;2023-06-04T04:40:19;14.93;;;5.55;;
64615;SDS011;51027;42.162;24.754;2023-06-04T04:42:45;14.88;;;5.97;;
64615;SDS011;51027;42.162;24.754;2023-06-04T04:45:11;14.20;;;5.72;;
64615;SDS011;51027;42.162;24.754;2023-06-04T04:47:37;16.08;;;6.15;;
64615;SDS011;51027;42.162;24.754;2023-06-04T04:50:03;14.80;;;6.20;;
64615;SDS011;51027;42.162;24.754;2023-06-04T04:52:29;18.00;;;6.20;;
64615;SDS011;51027;42.162;24.754;2023-06-04T04:54:55;16.75;;;6.13;;
64615;SDS011;51027;42.162;24.754;2023-06-04T04:57:22;14.93;;;5.93;;
64615;SDS011;51027;42.162;24.754;2023-06-04T04:59:48;13.88;;;5.55;;
64615;SDS011;51027;42.162;24.754;2023-06-04T05:02:14;15.25;;;6.45;;
64615;SDS011;51027;42.162;24.754;2023-06-04T05:04:40;14.90;;;6.05;;
64615;SDS011;51027;42.162;24.754;2023-06-04T05:07:05;15.20;;;5.93;;
64615;SDS011;51027;42.162;24.754;2023-06-04T05:09:31;16.30;;;6.47;;
64615;SDS011;51027;42.162;24.754;2023-06-04T05:11:56;16.48;;;6.53;;
64615;SDS011;51027;42.162;24.754;2023-06-04T05:14:21;15.45;;;5.90;;
64615;SDS011;51027;42.162;24.754;2023-06-04T05:16:47;16.00;;;6.10;;
64615;SDS011;51027;42.162;24.754;2023-06-04T05:19:13;16.58;;;6.20;;
64615;SDS011;51027;42.162;24.754;2023-06-04T05:21:41;16.38;;;6.53;;
64615;SDS011;51027;42.162;24.754;2023-06-04T05:24:07;15.48;;;6.70;;
64615;SDS011;51027;42.162;24.754;2023-06-04T05:26:32;14.82;;;6.50;;
64615;SDS011;51027;42.162;24.754;2023-06-04T05:28:58;16.58;;;6.43;;
64615;SDS011;51027;42.162;24.754;2023-06-04T05:31:24;15.35;;;6.00;;
64615;SDS011;51027;42.162;24.754;2023-06-04T05:33:51;14.80;;;6.43;;
64615;SDS011;51027;42.162;24.754;2023-06-04T05:36:17;18.40;;;6.15;;
64615;SDS011;51027;42.162;24.754;2023-06-04T05:38:43;15.15;;;5.88;;
64615;SDS011;51027;42.162;24.754;2023-06-04T05:41:08;19.17;;;6.78;;
64615;SDS011;51027;42.162;24.754;2023-06-04T05:43:33;18.02;;;7.55;;
64615;SDS011;51027;42.162;24.754;2023-06-04T05:45:59;15.52;;;6.32;;
64615;SDS011;51027;42.162;24.754;2023-06-04T05:48:24;16.13;;;7.20;;
64615;SDS011;51027;42.162;24.754;2023-06-04T05:50:50;17.55;;;7.03;;
64615;SDS011;51027;42.162;24.754;2023-06-04T05:53:15;16.25;;;6.70;;
64615;SDS011;51027;42.162;24.754;2023-06-04T05:55:41;17.23;;;6.90;;
64615;SDS011;51027;42.162;24.754;2023-06-04T05:58:06;15.40;;;6.82;;
64615;SDS011;51027;42.162;24.754;2023-06-04T06:00:32;16.90;;;6.60;;
64615;SDS011;51027;42.162;24.754;2023-06-04T06:02:57;16.13;;;6.80;;
64615;SDS011;51027;42.162;24.754;2023-06-04T06:05:23;16.27;;;6.88;;
64615;SDS011;51027;42.162;24.754;2023-06-04T06:07:48;18.02;;;7.13;;
64615;SDS011;51027;42.162;24.754;2023-06-04T06:10:13;15.90;;;6.78;;
64615;SDS011;51027;42.162;24.754;2023-06-04T06:12:40;16.42;;;7.10;;
64615;SDS011;51027;42.162;24.754;2023-06-04T06:15:06;17.80;;;6.97;;
64615;SDS011;51027;42.162;24.754;2023-06-04T06:17:32;17.55;;;6.95;;
64615;SDS011;51027;42.162;24.754;2023-06-04T06:19:57;17.80;;;7.78;;
64615;SDS011;51027;42.162;24.754;2023-06-04T06:22:23;17.70;;;6.85;;
64615;SDS011;51027;42.162;24.754;2023-06-04T06:24:49;16.85;;;6.97;;
64615;SDS011;51027;42.162;24.754;2023-06-04T06:27:15;16.05;;;6.72;;
64615;SDS011;51027;42.162;24.754;2023-06-04T06:29:41;17.50;;;6.95;;
64615;SDS011;51027;42.162;24.754;2023-06-04T06:32:07;15.77;;;6.25;;
64615;SDS011;51027;42.162;24.754;2023-06-04T06:34:33;15.70;;;6.68;;
64615;SDS011;51027;42.162;24.754;2023-06-04T06:36:58;17.48;;;7.80;;
64615;SDS011;51027;42.162;24.754;2023-06-04T06:39:24;16.50;;;7.55;;
64615;SDS011;51027;42.162;24.754;2023-06-04T06:41:49;20.85;;;8.95;;
64615;SDS011;51027;42.162;24.754;2023-06-04T06:44:15;19.65;;;8.50;;
64615;SDS011;51027;42.162;24.754;2023-06-04T06:46:40;18.35;;;8.95;;
64615;SDS011;51027;42.162;24.754;2023-06-04T06:49:05;19.85;;;10.00;;
64615;SDS011;51027;42.162;24.754;2023-06-04T06:51:31;21.15;;;10.95;;
64615;SDS011;51027;42.162;24.754;2023-06-04T06:53:56;21.15;;;11.02;;
64615;SDS011;51027;42.162;24.754;2023-06-04T06:56:22;18.85;;;10.18;;
64615;SDS011;51027;42.162;24.754;2023-06-04T06:58:47;19.88;;;9.07;;
64615;SDS011;51027;42.162;24.754;2023-06-04T07:01:13;18.30;;;9.63;;
64615;SDS011;51027;42.162;24.754;2023-06-04T07:03:38;18.83;;;8.45;;
64615;SDS011;51027;42.162;24.754;2023-06-04T07:06:05;17.45;;;8.35;;
64615;SDS011;51027;42.162;24.754;2023-06-04T07:08:31;18.23;;;7.95;;
64615;SDS011;51027;42.162;24.754;2023-06-04T07:10:57;22.00;;;9.20;;
64615;SDS011;51027;42.162;24.754;2023-06-04T07:13:23;17.17;;;7.88;;
64615;SDS011;51027;42.162;24.754;2023-06-04T07:15:48;17.30;;;8.23;;
64615;SDS011;51027;42.162;24.754;2023-06-04T07:18:14;17.60;;;8.38;;
64615;SDS011;51027;42.162;24.754;2023-06-04T07:20:39;17.55;;;7.50;;
64615;SDS011;51027;42.162;24.754;2023-06-04T07:23:05;20.17;;;8.88;;
64615;SDS011;51027;42.162;24.754;2023-06-04T07:25:32;20.65;;;9.73;;
64615;SDS011;51027;42.162;24.754;2023-06-04T07:27:57;18.50;;;9.40;;
64615;SDS011;51027;42.162;24.754;2023-06-04T07:30:23;18.23;;;8.80;;
64615;SDS011;51027;42.162;24.754;2023-06-04T07:32:50;18.30;;;8.40;;
64615;SDS011;51027;42.162;24.754;2023-06-04T07:35:16;17.90;;;9.20;;
64615;SDS011;51027;42.162;24.754;2023-06-04T07:37:41;17.20;;;8.65;;
64615;SDS011;51027;42.162;24.754;2023-06-04T07:40:10;18.42;;;8.90;;
64615;SDS011;51027;42.162;24.754;2023-06-04T07:42:36;17.77;;;8.77;;
64615;SDS011;51027;42.162;24.754;2023-06-04T07:45:02;18.30;;;9.13;;
64615;SDS011;51027;42.162;24.754;2023-06-04T07:47:28;19.02;;;8.85;;
64615;SDS011;51027;42.162;24.754;2023-06-04T07:49:53;18.88;;;9.57;;
64615;SDS011;51027;42.162;24.754;2023-06-04T07:52:19;19.30;;;9.80;;
64615;SDS011;51027;42.162;24.754;2023-06-04T07:54:44;19.45;;;9.18;;
64615;SDS011;51027;42.162;24.754;2023-06-04T07:57:09;17.83;;;9.40;;
64615;SDS011;51027;42.162;24.754;2023-06-04T07:59:35;20.85;;;10.45;;
64615;SDS011;51027;42.162;24.754;2023-06-04T08:02:01;20.50;;;8.85;;
64615;SDS011;51027;42.162;24.754;2023-06-04T08:04:26;17.98;;;9.48;;
64615;SDS011;51027;42.162;24.754;2023-06-04T08:06:52;20.27;;;9.13;;
64615;SDS011;51027;42.162;24.754;2023-06-04T08:09:18;18.38;;;9.32;;
64615;SDS011;51027;42.162;24.754;2023-06-04T08:11:43;18.50;;;8.82;;
64615;SDS011;51027;42.162;24.754;2023-06-04T08:14:10;17.70;;;8.80;;
64615;SDS011;51027;42.162;24.754;2023-06-04T08:16:36;18.17;;;10.02;;
64615;SDS011;51027;42.162;24.754;2023-06-04T08:19:01;19.00;;;10.02;;
64615;SDS011;51027;42.162;24.754;2023-06-04T08:21:27;19.10;;;9.68;;
64615;SDS011;51027;42.162;24.754;2023-06-04T08:23:53;19.48;;;9.30;;
64615;SDS011;51027;42.162;24.754;2023-06-04T08:26:19;19.27;;;9.00;;
64615;SDS011;51027;42.162;24.754;2023-06-04T08:28:48;17.75;;;9.00;;
64615;SDS011;51027;42.162;24.754;2023-06-04T08:31:14;18.23;;;8.85;;
64615;SDS011;51027;42.162;24.754;2023-06-04T08:33:39;20.77;;;9.48;;
64615;SDS011;51027;42.162;24.754;2023-06-04T08:36:04;18.90;;;8.57;;
64615;SDS011;51027;42.162;24.754;2023-06-04T08:38:30;17.40;;;8.23;;
64615;SDS011;51027;42.162;24.754;2023-06-04T08:40:56;19.30;;;8.38;;
64615;SDS011;51027;42.162;24.754;2023-06-04T08:43:27;18.70;;;8.35;;
64615;SDS011;51027;42.162;24.754;2023-06-04T08:45:57;18.17;;;7.60;;
64615;SDS011;51027;42.162;24.754;2023-06-04T08:48:24;17.80;;;8.90;;
64615;SDS011;51027;42.162;24.754;2023-06-04T08:50:51;19.45;;;9.35;;
64615;SDS011;51027;42.162;24.754;2023-06-04T08:53:18;19.77;;;9.13;;
64615;SDS011;51027;42.162;24.754;2023-06-04T08:55:43;16.83;;;8.10;;
64615;SDS011;51027;42.162;24.754;2023-06-04T08:58:10;17.60;;;8.95;;
64615;SDS011;51027;42.162;24.754;2023-06-04T09:00:36;18.55;;;8.63;;
64615;SDS011;51027;42.162;24.754;2023-06-04T09:03:02;18.27;;;8.05;;
64615;SDS011;51027;42.162;24.754;2023-06-04T09:05:30;16.63;;;7.95;;
64615;SDS011;51027;42.162;24.754;2023-06-04T09:07:56;16.27;;;7.55;;
64615;SDS011;51027;42.162;24.754;2023-06-04T09:10:25;17.00;;;8.00;;
64615;SDS011;51027;42.162;24.754;2023-06-04T09:12:54;17.20;;;7.43;;
64615;SDS011;51027;42.162;24.754;2023-06-04T09:15:23;15.63;;;7.15;;
64615;SDS011;51027;42.162;24.754;2023-06-04T09:17:49;16.10;;;7.05;;
64615;SDS011;51027;42.162;24.754;2023-06-04T09:20:18;17.23;;;8.02;;
64615;SDS011;51027;42.162;24.754;2023-06-04T09:22:47;16.73;;;7.00;;
64615;SDS011;51027;42.162;24.754;2023-06-04T09:25:22;17.50;;;8.23;;
64615;SDS011;51027;42.162;24.754;2023-06-04T09:30:19;17.38;;;7.45;;
64615;SDS011;51027;42.162;24.754;2023-06-04T09:32:45;17.13;;;7.43;;
64615;SDS011;51027;42.162;24.754;2023-06-04T09:35:11;17.20;;;7.72;;
64615;SDS011;51027;42.162;24.754;2023-06-04T09:37:42;19.40;;;8.38;;
64615;SDS011;51027;42.162;24.754;2023-06-04T09:40:08;16.02;;;8.05;;
64615;SDS011;51027;42.162;24.754;2023-06-04T09:42:44;17.42;;;8.93;;
64615;SDS011;51027;42.162;24.754;2023-06-04T09:45:10;19.77;;;8.00;;
64615;SDS011;51027;42.162;24.754;2023-06-04T09:47:42;16.05;;;8.05;;
64615;SDS011;51027;42.162;24.754;2023-06-04T09:50:10;17.85;;;9.13;;
64615;SDS011;51027;42.162;24.754;2023-06-04T09:52:36;17.30;;;8.07;;
64615;SDS011;51027;42.162;24.754;2023-06-04T09:55:02;16.73;;;8.15;;
64615;SDS011;51027;42.162;24.754;2023-06-04T09:57:29;17.30;;;7.47;;
64615;SDS011;51027;42.162;24.754;2023-06-04T09:59:55;17.10;;;7.50;;
64615;SDS011;51027;42.162;24.754;2023-06-04T10:02:22;17.15;;;6.90;;
64615;SDS011;51027;42.162;24.754;2023-06-04T10:04:56;15.95;;;7.03;;
64615;SDS011;51027;42.162;24.754;2023-06-04T10:07:27;16.27;;;6.78;;
64615;SDS011;51027;42.162;24.754;2023-06-04T10:09:53;17.05;;;7.50;;
64615;SDS011;51027;42.162;24.754;2023-06-04T10:12:23;15.82;;;7.32;;
64615;SDS011;51027;42.162;24.754;2023-06-04T10:14:56;16.88;;;7.53;;
64615;SDS011;51027;42.162;24.754;2023-06-04T10:17:26;16.25;;;7.38;;
64615;SDS011;51027;42.162;24.754;2023-06-04T10:19:54;16.25;;;7.60;;
64615;SDS011;51027;42.162;24.754;2023-06-04T10:22:21;15.60;;;5.93;;
64615;SDS011;51027;42.162;24.754;2023-06-04T10:24:47;15.35;;;6.20;;
64615;SDS011;51027;42.162;24.754;2023-06-04T10:27:13;14.80;;;6.32;;
64615;SDS011;51027;42.162;24.754;2023-06-04T10:29:38;13.20;;;5.50;;
64615;SDS011;51027;42.162;24.754;2023-06-04T10:32:04;16.00;;;5.40;;
64615;SDS011;51027;42.162;24.754;2023-06-04T10:34:30;14.52;;;6.13;;
64615;SDS011;51027;42.162;24.754;2023-06-04T10:36:57;15.77;;;6.05;;
64615;SDS011;51027;42.162;24.754;2023-06-04T10:39:28;14.23;;;5.80;;
64615;SDS011;51027;42.162;24.754;2023-06-04T10:41:58;14.95;;;5.50;;
64615;SDS011;51027;42.162;24.754;2023-06-04T10:44:25;14.38;;;5.70;;
64615;SDS011;51027;42.162;24.754;2023-06-04T10:46:50;14.48;;;5.30;;
64615;SDS011;51027;42.162;24.754;2023-06-04T10:49:25;15.80;;;5.60;;
64615;SDS011;51027;42.162;24.754;2023-06-04T10:51:51;14.75;;;5.72;;
64615;SDS011;51027;42.162;24.754;2023-06-04T10:54:23;16.23;;;6.00;;
64615;SDS011;51027;42.162;24.754;2023-06-04T10:56:50;16.70;;;7.57;;
64615;SDS011;51027;42.162;24.754;2023-06-04T10:59:17;17.65;;;8.63;;
64615;SDS011;51027;42.162;24.754;2023-06-04T11:01:43;17.58;;;9.02;;
64615;SDS011;51027;42.162;24.754;2023-06-04T11:04:21;19.63;;;10.18;;
64615;SDS011;51027;42.162;24.754;2023-06-04T11:06:48;18.40;;;9.60;;
64615;SDS011;51027;42.162;24.754;2023-06-04T11:09:25;19.58;;;10.23;;
64615;SDS011;51027;42.162;24.754;2023-06-04T11:11:58;18.30;;;9.40;;
64615;SDS011;51027;42.162;24.754;2023-06-04T11:14:24;20.80;;;10.65;;
64615;SDS011;51027;42.162;24.754;2023-06-04T11:16:50;17.85;;;10.23;;
64615;SDS011;51027;42.162;24.754;2023-06-04T11:19:15;18.90;;;10.73;;
64615;SDS011;51027;42.162;24.754;2023-06-04T11:21:41;20.15;;;11.02;;
64615;SDS011;51027;42.162;24.754;2023-06-04T11:24:06;17.63;;;10.38;;
64615;SDS011;51027;42.162;24.754;2023-06-04T11:26:35;19.02;;;11.15;;
64615;SDS011;51027;42.162;24.754;2023-06-04T11:29:02;18.98;;;10.50;;
64615;SDS011;51027;42.162;24.754;2023-06-04T11:31:40;17.98;;;9.32;;
64615;SDS011;51027;42.162;24.754;2023-06-04T11:34:07;19.75;;;10.15;;
64615;SDS011;51027;42.162;24.754;2023-06-04T11:36:32;18.13;;;10.35;;
64615;SDS011;51027;42.162;24.754;2023-06-04T11:38:58;17.95;;;10.40;;
64615;SDS011;51027;42.162;24.754;2023-06-04T11:41:29;18.23;;;11.23;;
64615;SDS011;51027;42.162;24.754;2023-06-04T11:43:56;21.58;;;10.82;;
64615;SDS011;51027;42.162;24.754;2023-06-04T11:46:23;17.58;;;9.15;;
64615;SDS011;51027;42.162;24.754;2023-06-04T11:48:52;17.10;;;9.45;;
64615;SDS011;51027;42.162;24.754;2023-06-04T11:51:21;18.17;;;8.85;;
64615;SDS011;51027;42.162;24.754;2023-06-04T11:53:47;17.57;;;9.27;;
64615;SDS011;51027;42.162;24.754;2023-06-04T11:56:13;16.95;;;7.97;;
64615;SDS011;51027;42.162;24.754;2023-06-04T11:58:39;16.95;;;8.38;;
64615;SDS011;51027;42.162;24.754;2023-06-04T12:01:06;16.45;;;7.78;;
64615;SDS011;51027;42.162;24.754;2023-06-04T12:11:32;17.88;;;8.75;;
64615;SDS011;51027;42.162;24.754;2023-06-04T12:13:59;17.13;;;8.20;;
64615;SDS011;51027;42.162;24.754;2023-06-04T12:16:26;19.40;;;10.27;;
64615;SDS011;51027;42.162;24.754;2023-06-04T12:18:52;16.00;;;7.80;;
64615;SDS011;51027;42.162;24.754;2023-06-04T12:21:29;14.90;;;7.68;;
64615;SDS011;51027;42.162;24.754;2023-06-04T12:24:05;16.75;;;7.47;;
64615;SDS011;51027;42.162;24.754;2023-06-04T12:26:31;18.08;;;8.85;;
64615;SDS011;51027;42.162;24.754;2023-06-04T12:29:02;16.77;;;7.38;;
64615;SDS011;51027;42.162;24.754;2023-06-04T12:31:32;15.77;;;7.88;;
64615;SDS011;51027;42.162;24.754;2023-06-04T12:34:00;15.93;;;7.80;;
64615;SDS011;51027;42.162;24.754;2023-06-04T12:36:26;16.60;;;7.32;;
64615;SDS011;51027;42.162;24.754;2023-06-04T12:38:53;15.13;;;7.18;;
64615;SDS011;51027;42.162;24.754;2023-06-04T12:41:22;16.05;;;7.13;;
64615;SDS011;51027;42.162;24.754;2023-06-04T12:43:48;18.27;;;7.43;;
64615;SDS011;51027;42.162;24.754;2023-06-04T12:46:13;15.63;;;8.18;;
64615;SDS011;51027;42.162;24.754;2023-06-04T12:48:39;17.80;;;7.68;;
64615;SDS011;51027;42.162;24.754;2023-06-04T12:51:04;16.70;;;7.88;;
64615;SDS011;51027;42.162;24.754;2023-06-04T12:53:30;15.43;;;6.70;;
64615;SDS011;51027;42.162;24.754;2023-06-04T12:55:55;15.55;;;6.70;;
64615;SDS011;51027;42.162;24.754;2023-06-04T12:58:23;14.70;;;7.15;;
64615;SDS011;51027;42.162;24.754;2023-06-04T13:00:49;16.10;;;7.45;;
64615;SDS011;51027;42.162;24.754;2023-06-04T13:03:14;15.02;;;6.95;;
64615;SDS011;51027;42.162;24.754;2023-06-04T13:05:39;16.73;;;7.68;;
64615;SDS011;51027;42.162;24.754;2023-06-04T13:08:05;16.98;;;8.07;;
64615;SDS011;51027;42.162;24.754;2023-06-04T13:10:30;15.98;;;7.43;;
64615;SDS011;51027;42.162;24.754;2023-06-04T13:12:56;15.73;;;7.68;;
64615;SDS011;51027;42.162;24.754;2023-06-04T13:15:21;17.00;;;7.70;;
64615;SDS011;51027;42.162;24.754;2023-06-04T13:17:47;17.58;;;8.80;;
64615;SDS011;51027;42.162;24.754;2023-06-04T13:20:12;15.27;;;7.05;;
64615;SDS011;51027;42.162;24.754;2023-06-04T13:22:38;15.50;;;7.22;;
64615;SDS011;51027;42.162;24.754;2023-06-04T13:25:03;15.68;;;7.63;;
64615;SDS011;51027;42.162;24.754;2023-06-04T13:27:29;16.30;;;8.10;;
64615;SDS011;51027;42.162;24.754;2023-06-04T13:29:54;17.13;;;8.07;;
64615;SDS011;51027;42.162;24.754;2023-06-04T13:32:20;16.80;;;8.45;;
64615;SDS011;51027;42.162;24.754;2023-06-04T13:34:45;16.80;;;8.30;;
64615;SDS011;51027;42.162;24.754;2023-06-04T13:37:10;17.55;;;7.70;;
64615;SDS011;51027;42.162;24.754;2023-06-04T13:39:37;16.48;;;7.53;;
64615;SDS011;51027;42.162;24.754;2023-06-04T13:42:03;17.10;;;7.47;;
64615;SDS011;51027;42.162;24.754;2023-06-04T13:44:29;16.10;;;7.90;;
64615;SDS011;51027;42.162;24.754;2023-06-04T13:46:54;18.15;;;8.38;;
64615;SDS011;51027;42.162;24.754;2023-06-04T13:49:20;17.45;;;8.13;;
64615;SDS011;51027;42.162;24.754;2023-06-04T13:51:45;16.13;;;7.75;;
64615;SDS011;51027;42.162;24.754;2023-06-04T13:54:11;16.73;;;8.18;;
64615;SDS011;51027;42.162;24.754;2023-06-04T13:56:36;15.93;;;7.80;;
64615;SDS011;51027;42.162;24.754;2023-06-04T13:59:01;18.80;;;8.85;;
64615;SDS011;51027;42.162;24.754;2023-06-04T14:01:27;17.45;;;8.48;;
64615;SDS011;51027;42.162;24.754;2023-06-04T14:03:52;15.75;;;7.70;;
64615;SDS011;51027;42.162;24.754;2023-06-04T14:06:18;15.60;;;7.20;;
64615;SDS011;51027;42.162;24.754;2023-06-04T14:08:43;17.10;;;8.10;;
64615;SDS011;51027;42.162;24.754;2023-06-04T14:11:09;15.35;;;6.80;;
64615;SDS011;51027;42.162;24.754;2023-06-04T14:13:35;16.38;;;7.65;;
64615;SDS011;51027;42.162;24.754;2023-06-04T14:16:02;16.75;;;7.30;;
64615;SDS011;51027;42.162;24.754;2023-06-04T14:18:29;16.67;;;8.10;;
64615;SDS011;51027;42.162;24.754;2023-06-04T14:20:54;15.48;;;7.55;;
64615;SDS011;51027;42.162;24.754;2023-06-04T14:23:19;16.02;;;7.70;;
64615;SDS011;51027;42.162;24.754;2023-06-04T14:25:45;15.57;;;7.85;;
64615;SDS011;51027;42.162;24.754;2023-06-04T14:28:10;17.65;;;8.10;;
64615;SDS011;51027;42.162;24.754;2023-06-04T14:30:36;16.50;;;8.00;;
64615;SDS011;51027;42.162;24.754;2023-06-04T14:33:01;18.80;;;8.93;;